Palmdale Regional/USAF Plant 42 Airport
KPMD : now visible

Airfield :











YOU CAN JOIN US ON...

 
LOGIN :

Register | Disclaimer

   EN    FR    IT 

 









Legend :    VFR   Marginal VFR   IFR   Intensive IFR   Very Intensive IFR
Visi :
Ceiling :
>= 8 km
>= 3000ft
5 to 8 km
1000 to 3000 ft
1500m to 5 km
500 to 1000 ft
800 to 1500m
200 to 500 ft
< 800m
< 200 ft
Symbols :   Thunderstorms  Fog  Heavy snow  Heavy precipitations  Wind > 20 kt






- Airport Elevation : 2543 ft
- IATA code : PMD


KPMD - Palmdale Regional/USAF Plant 42

CURRENT METAR :
  • 290453Z 23011KT 10SM CLR 22/08 A3002 RMK AO2 SLP139 T02170078

EXPIRED METARs :
  • 290353Z 22016KT 10SM CLR 22/07 A3001 RMK AO2 SLP138 T02220067
  • 290253Z 23013KT 10SM CLR 23/09 A3001 RMK AO2 SLP137 T02330089 53004
  • 290153Z 23017KT 10SM CLR 26/09 A3000 RMK AO2 PK WND 24026/0101 SLP134 T02560089
  • 290053Z 24019KT 10SM CLR 27/08 A2999 RMK AO2 PK WND 23026/0032 SLP134 T02720083

TAF KPMD
Valid from the 29 at 04:00 until the 30 at 00:00 UTC


290404Z 2904/2924 22015KT P6SM SKC
FM291500 24010KT P6SM SKC
FM292000 26015G25KT P6SM SKC
KZLA FIR / North America



MET'MAP, your aeronautical weather chart ! - Copyright ORBIFLY December 2007 - Disclaimer

ORBIFLY MET'MAP TEAM :

Programming & Development : Alexandra Zaïnal
Original concept : Baudouin d'Aumeries
Technical & hardware support : Manuel Goepfert
Assistance : Marc-Olivier Méhu




SOURCES & CREDITS :

   NOAA       Earth
Advisory